sensor_id;sensor_type;location;lat;lon;timestamp;P1;durP1;ratioP1;P2;durP2;ratioP2
2928;SDS011;1474;51.460;7.150;2024-03-23T00:53:44;9.23;;;2.50;;
2928;SDS011;1474;51.460;7.150;2024-03-23T00:56:29;6.45;;;2.40;;
2928;SDS011;1474;51.460;7.150;2024-03-23T00:59:14;10.52;;;2.20;;
2928;SDS011;1474;51.460;7.150;2024-03-23T01:01:58;7.40;;;2.40;;
2928;SDS011;1474;51.460;7.150;2024-03-23T01:04:43;4.68;;;2.08;;
2928;SDS011;1474;51.460;7.150;2024-03-23T01:07:27;9.00;;;3.28;;
2928;SDS011;1474;51.460;7.150;2024-03-23T01:10:12;7.88;;;2.00;;
2928;SDS011;1474;51.460;7.150;2024-03-23T01:12:57;8.35;;;1.80;;
2928;SDS011;1474;51.460;7.150;2024-03-23T01:15:45;8.82;;;2.00;;
2928;SDS011;1474;51.460;7.150;2024-03-23T01:18:36;8.88;;;2.30;;
2928;SDS011;1474;51.460;7.150;2024-03-23T01:21:20;6.22;;;1.67;;
2928;SDS011;1474;51.460;7.150;2024-03-23T01:24:05;10.48;;;2.33;;
2928;SDS011;1474;51.460;7.150;2024-03-23T01:26:50;9.20;;;2.47;;
2928;SDS011;1474;51.460;7.150;2024-03-23T01:29:35;5.70;;;2.17;;
2928;SDS011;1474;51.460;7.150;2024-03-23T01:32:19;6.50;;;2.67;;
2928;SDS011;1474;51.460;7.150;2024-03-23T01:35:04;6.85;;;2.20;;
2928;SDS011;1474;51.460;7.150;2024-03-23T01:37:49;4.57;;;1.95;;
2928;SDS011;1474;51.460;7.150;2024-03-23T01:40:34;7.65;;;2.20;;
2928;SDS011;1474;51.460;7.150;2024-03-23T01:43:18;5.50;;;1.92;;
2928;SDS011;1474;51.460;7.150;2024-03-23T01:46:03;5.72;;;1.73;;
2928;SDS011;1474;51.460;7.150;2024-03-23T01:48:47;6.30;;;2.30;;
2928;SDS011;1474;51.460;7.150;2024-03-23T01:51:34;8.48;;;2.20;;
2928;SDS011;1474;51.460;7.150;2024-03-23T01:54:20;2.22;;;1.23;;
2928;SDS011;1474;51.460;7.150;2024-03-23T01:57:06;5.55;;;2.05;;
2928;SDS011;1474;51.460;7.150;2024-03-23T01:59:51;3.60;;;1.35;;
2928;SDS011;1474;51.460;7.150;2024-03-23T02:02:37;5.40;;;1.70;;
2928;SDS011;1474;51.460;7.150;2024-03-23T02:05:29;5.97;;;1.42;;
2928;SDS011;1474;51.460;7.150;2024-03-23T02:08:13;3.15;;;1.58;;
2928;SDS011;1474;51.460;7.150;2024-03-23T02:10:58;4.75;;;1.95;;
2928;SDS011;1474;51.460;7.150;2024-03-23T02:13:42;3.90;;;1.17;;
2928;SDS011;1474;51.460;7.150;2024-03-23T02:16:27;6.22;;;1.85;;
2928;SDS011;1474;51.460;7.150;2024-03-23T02:19:12;4.22;;;1.10;;
2928;SDS011;1474;51.460;7.150;2024-03-23T02:21:56;5.65;;;1.50;;
2928;SDS011;1474;51.460;7.150;2024-03-23T02:24:41;5.50;;;1.50;;
2928;SDS011;1474;51.460;7.150;2024-03-23T02:27:26;9.00;;;1.55;;
2928;SDS011;1474;51.460;7.150;2024-03-23T02:30:11;4.97;;;1.48;;
2928;SDS011;1474;51.460;7.150;2024-03-23T02:32:55;5.45;;;1.60;;
2928;SDS011;1474;51.460;7.150;2024-03-23T02:35:40;5.80;;;1.90;;
2928;SDS011;1474;51.460;7.150;2024-03-23T02:38:25;8.00;;;2.00;;
2928;SDS011;1474;51.460;7.150;2024-03-23T02:41:09;6.30;;;1.60;;
2928;SDS011;1474;51.460;7.150;2024-03-23T02:43:54;6.60;;;1.67;;
2928;SDS011;1474;51.460;7.150;2024-03-23T02:46:38;4.93;;;1.50;;
2928;SDS011;1474;51.460;7.150;2024-03-23T02:49:23;7.07;;;2.80;;
2928;SDS011;1474;51.460;7.150;2024-03-23T02:52:07;9.60;;;1.95;;
2928;SDS011;1474;51.460;7.150;2024-03-23T02:54:52;7.38;;;1.95;;
2928;SDS011;1474;51.460;7.150;2024-03-23T02:57:36;1.70;;;1.20;;
2928;SDS011;1474;51.460;7.150;2024-03-23T03:00:21;3.85;;;1.85;;
2928;SDS011;1474;51.460;7.150;2024-03-23T03:03:05;8.88;;;1.63;;
2928;SDS011;1474;51.460;7.150;2024-03-23T03:05:56;4.90;;;1.95;;
2928;SDS011;1474;51.460;7.150;2024-03-23T03:08:41;5.10;;;1.52;;
2928;SDS011;1474;51.460;7.150;2024-03-23T03:11:26;7.60;;;1.65;;
2928;SDS011;1474;51.460;7.150;2024-03-23T03:14:11;2.50;;;1.10;;
2928;SDS011;1474;51.460;7.150;2024-03-23T03:16:55;5.63;;;2.05;;
2928;SDS011;1474;51.460;7.150;2024-03-23T03:19:40;5.47;;;1.60;;
2928;SDS011;1474;51.460;7.150;2024-03-23T03:22:24;2.67;;;1.20;;
2928;SDS011;1474;51.460;7.150;2024-03-23T03:25:09;5.22;;;1.25;;
2928;SDS011;1474;51.460;7.150;2024-03-23T03:27:53;3.08;;;1.20;;
2928;SDS011;1474;51.460;7.150;2024-03-23T03:30:38;4.07;;;1.38;;
2928;SDS011;1474;51.460;7.150;2024-03-23T03:33:22;5.53;;;1.40;;
2928;SDS011;1474;51.460;7.150;2024-03-23T03:36:07;4.35;;;1.38;;
2928;SDS011;1474;51.460;7.150;2024-03-23T03:38:52;5.65;;;1.05;;
2928;SDS011;1474;51.460;7.150;2024-03-23T03:41:36;3.08;;;1.10;;
2928;SDS011;1474;51.460;7.150;2024-03-23T03:44:21;6.43;;;1.48;;
2928;SDS011;1474;51.460;7.150;2024-03-23T03:47:06;2.88;;;1.30;;
2928;SDS011;1474;51.460;7.150;2024-03-23T03:49:51;5.07;;;1.08;;
2928;SDS011;1474;51.460;7.150;2024-03-23T03:52:35;5.45;;;1.48;;
2928;SDS011;1474;51.460;7.150;2024-03-23T03:55:20;3.88;;;1.25;;
2928;SDS011;1474;51.460;7.150;2024-03-23T03:58:04;3.92;;;1.20;;
2928;SDS011;1474;51.460;7.150;2024-03-23T04:00:49;4.53;;;1.30;;
2928;SDS011;1474;51.460;7.150;2024-03-23T04:03:34;7.68;;;1.83;;
2928;SDS011;1474;51.460;7.150;2024-03-23T04:06:19;3.28;;;1.02;;
2928;SDS011;1474;51.460;7.150;2024-03-23T04:09:03;3.30;;;1.50;;
2928;SDS011;1474;51.460;7.150;2024-03-23T04:11:48;4.00;;;1.15;;
2928;SDS011;1474;51.460;7.150;2024-03-23T04:14:32;3.88;;;1.38;;
2928;SDS011;1474;51.460;7.150;2024-03-23T04:17:17;3.50;;;0.98;;
2928;SDS011;1474;51.460;7.150;2024-03-23T04:20:02;8.45;;;1.67;;
2928;SDS011;1474;51.460;7.150;2024-03-23T04:22:52;5.05;;;1.73;;
2928;SDS011;1474;51.460;7.150;2024-03-23T04:25:37;6.65;;;1.70;;
2928;SDS011;1474;51.460;7.150;2024-03-23T04:28:22;7.72;;;2.08;;
2928;SDS011;1474;51.460;7.150;2024-03-23T04:31:06;3.50;;;1.48;;
2928;SDS011;1474;51.460;7.150;2024-03-23T04:33:51;6.20;;;1.70;;
2928;SDS011;1474;51.460;7.150;2024-03-23T04:36:35;6.13;;;2.30;;
2928;SDS011;1474;51.460;7.150;2024-03-23T04:39:20;3.42;;;2.08;;
2928;SDS011;1474;51.460;7.150;2024-03-23T04:42:05;7.28;;;2.33;;
2928;SDS011;1474;51.460;7.150;2024-03-23T04:44:49;8.98;;;2.42;;
2928;SDS011;1474;51.460;7.150;2024-03-23T04:47:34;5.65;;;2.30;;
2928;SDS011;1474;51.460;7.150;2024-03-23T04:50:19;4.43;;;2.72;;
2928;SDS011;1474;51.460;7.150;2024-03-23T04:53:04;8.25;;;2.28;;
2928;SDS011;1474;51.460;7.150;2024-03-23T04:55:48;6.15;;;2.70;;
2928;SDS011;1474;51.460;7.150;2024-03-23T04:58:33;4.07;;;2.20;;
2928;SDS011;1474;51.460;7.150;2024-03-23T05:01:18;6.00;;;2.30;;
2928;SDS011;1474;51.460;7.150;2024-03-23T05:04:02;5.72;;;1.88;;
2928;SDS011;1474;51.460;7.150;2024-03-23T05:06:47;7.88;;;1.58;;
2928;SDS011;1474;51.460;7.150;2024-03-23T05:09:31;4.05;;;2.25;;
2928;SDS011;1474;51.460;7.150;2024-03-23T05:12:16;5.10;;;1.83;;
2928;SDS011;1474;51.460;7.150;2024-03-23T05:15:01;6.32;;;2.30;;
2928;SDS011;1474;51.460;7.150;2024-03-23T05:17:47;4.38;;;2.00;;
2928;SDS011;1474;51.460;7.150;2024-03-23T05:20:31;4.05;;;1.92;;
2928;SDS011;1474;51.460;7.150;2024-03-23T05:23:16;9.25;;;2.75;;
2928;SDS011;1474;51.460;7.150;2024-03-23T05:26:00;5.15;;;2.90;;
2928;SDS011;1474;51.460;7.150;2024-03-23T05:28:45;8.40;;;4.45;;
2928;SDS011;1474;51.460;7.150;2024-03-23T05:31:30;11.63;;;4.53;;
2928;SDS011;1474;51.460;7.150;2024-03-23T05:34:15;7.90;;;4.90;;
2928;SDS011;1474;51.460;7.150;2024-03-23T05:36:59;12.10;;;4.88;;
2928;SDS011;1474;51.460;7.150;2024-03-23T05:39:44;10.38;;;5.18;;
2928;SDS011;1474;51.460;7.150;2024-03-23T05:42:28;12.43;;;6.18;;
2928;SDS011;1474;51.460;7.150;2024-03-23T05:45:13;8.27;;;5.75;;
2928;SDS011;1474;51.460;7.150;2024-03-23T05:47:58;11.88;;;6.15;;
2928;SDS011;1474;51.460;7.150;2024-03-23T05:50:42;9.32;;;5.55;;
2928;SDS011;1474;51.460;7.150;2024-03-23T05:53:27;11.48;;;5.45;;
2928;SDS011;1474;51.460;7.150;2024-03-23T05:56:14;10.45;;;5.40;;
2928;SDS011;1474;51.460;7.150;2024-03-23T05:59:03;8.18;;;4.75;;
2928;SDS011;1474;51.460;7.150;2024-03-23T06:01:48;6.90;;;4.95;;
2928;SDS011;1474;51.460;7.150;2024-03-23T06:04:14;8.73;;;4.88;;
2928;SDS011;1474;51.460;7.150;2024-03-23T06:06:40;12.43;;;5.38;;
2928;SDS011;1474;51.460;7.150;2024-03-23T06:09:06;14.30;;;5.22;;
2928;SDS011;1474;51.460;7.150;2024-03-23T06:11:31;8.32;;;4.55;;
2928;SDS011;1474;51.460;7.150;2024-03-23T06:13:57;10.63;;;5.70;;
2928;SDS011;1474;51.460;7.150;2024-03-23T06:16:23;7.22;;;3.90;;
2928;SDS011;1474;51.460;7.150;2024-03-23T06:18:52;9.50;;;4.43;;
2928;SDS011;1474;51.460;7.150;2024-03-23T06:21:20;7.80;;;4.45;;
2928;SDS011;1474;51.460;7.150;2024-03-23T06:23:46;7.05;;;4.45;;
2928;SDS011;1474;51.460;7.150;2024-03-23T06:26:20;10.60;;;4.95;;
2928;SDS011;1474;51.460;7.150;2024-03-23T06:28:47;10.32;;;5.45;;
2928;SDS011;1474;51.460;7.150;2024-03-23T06:31:13;13.00;;;6.78;;
2928;SDS011;1474;51.460;7.150;2024-03-23T06:33:39;10.50;;;6.55;;
2928;SDS011;1474;51.460;7.150;2024-03-23T06:36:07;12.88;;;6.63;;
2928;SDS011;1474;51.460;7.150;2024-03-23T06:38:36;10.77;;;7.15;;
2928;SDS011;1474;51.460;7.150;2024-03-23T06:41:05;8.67;;;6.13;;
2928;SDS011;1474;51.460;7.150;2024-03-23T06:43:31;16.70;;;6.45;;
2928;SDS011;1474;51.460;7.150;2024-03-23T06:45:57;19.60;;;7.25;;
2928;SDS011;1474;51.460;7.150;2024-03-23T06:48:26;16.27;;;7.13;;
2928;SDS011;1474;51.460;7.150;2024-03-23T06:50:56;16.07;;;7.80;;
2928;SDS011;1474;51.460;7.150;2024-03-23T06:53:23;13.23;;;8.40;;
2928;SDS011;1474;51.460;7.150;2024-03-23T06:55:52;15.40;;;8.88;;
2928;SDS011;1474;51.460;7.150;2024-03-23T06:58:19;17.27;;;8.45;;
2928;SDS011;1474;51.460;7.150;2024-03-23T07:00:46;14.52;;;8.10;;
2928;SDS011;1474;51.460;7.150;2024-03-23T07:03:13;17.48;;;9.80;;
2928;SDS011;1474;51.460;7.150;2024-03-23T07:05:38;22.77;;;9.10;;
2928;SDS011;1474;51.460;7.150;2024-03-23T07:08:05;14.10;;;8.73;;
2928;SDS011;1474;51.460;7.150;2024-03-23T07:10:31;14.90;;;8.73;;
2928;SDS011;1474;51.460;7.150;2024-03-23T07:12:57;11.98;;;8.45;;
2928;SDS011;1474;51.460;7.150;2024-03-23T07:15:22;12.80;;;7.72;;
2928;SDS011;1474;51.460;7.150;2024-03-23T07:17:48;18.08;;;9.77;;
2928;SDS011;1474;51.460;7.150;2024-03-23T07:20:14;12.73;;;8.00;;
2928;SDS011;1474;51.460;7.150;2024-03-23T07:22:40;18.02;;;9.30;;
2928;SDS011;1474;51.460;7.150;2024-03-23T07:25:06;14.73;;;9.00;;
2928;SDS011;1474;51.460;7.150;2024-03-23T07:27:32;16.38;;;9.27;;
2928;SDS011;1474;51.460;7.150;2024-03-23T07:29:59;20.50;;;10.18;;
2928;SDS011;1474;51.460;7.150;2024-03-23T07:32:26;19.17;;;10.07;;
2928;SDS011;1474;51.460;7.150;2024-03-23T07:34:52;14.38;;;9.13;;
2928;SDS011;1474;51.460;7.150;2024-03-23T07:37:18;13.07;;;9.35;;
2928;SDS011;1474;51.460;7.150;2024-03-23T07:39:44;16.75;;;8.55;;
2928;SDS011;1474;51.460;7.150;2024-03-23T07:42:09;18.90;;;9.20;;
2928;SDS011;1474;51.460;7.150;2024-03-23T07:44:35;16.15;;;8.63;;
2928;SDS011;1474;51.460;7.150;2024-03-23T07:47:01;11.77;;;8.23;;
2928;SDS011;1474;51.460;7.150;2024-03-23T07:49:27;12.40;;;8.38;;
2928;SDS011;1474;51.460;7.150;2024-03-23T07:51:53;14.98;;;8.75;;
2928;SDS011;1474;51.460;7.150;2024-03-23T07:54:18;17.73;;;7.65;;
2928;SDS011;1474;51.460;7.150;2024-03-23T07:56:44;12.98;;;7.32;;
2928;SDS011;1474;51.460;7.150;2024-03-23T07:59:10;13.02;;;6.28;;
2928;SDS011;1474;51.460;7.150;2024-03-23T08:01:36;12.35;;;6.63;;
2928;SDS011;1474;51.460;7.150;2024-03-23T08:04:03;14.40;;;6.38;;
2928;SDS011;1474;51.460;7.150;2024-03-23T08:06:29;11.98;;;6.32;;
2928;SDS011;1474;51.460;7.150;2024-03-23T08:08:55;11.60;;;5.95;;
2928;SDS011;1474;51.460;7.150;2024-03-23T08:11:27;12.82;;;5.90;;
2928;SDS011;1474;51.460;7.150;2024-03-23T08:16:23;9.60;;;5.22;;
2928;SDS011;1474;51.460;7.150;2024-03-23T08:18:52;15.85;;;6.05;;
2928;SDS011;1474;51.460;7.150;2024-03-23T08:21:20;10.88;;;5.55;;
2928;SDS011;1474;51.460;7.150;2024-03-23T08:23:46;11.35;;;5.65;;
2928;SDS011;1474;51.460;7.150;2024-03-23T08:26:12;11.25;;;4.90;;
2928;SDS011;1474;51.460;7.150;2024-03-23T08:28:41;15.15;;;6.70;;
2928;SDS011;1474;51.460;7.150;2024-03-23T08:31:08;11.15;;;5.80;;
2928;SDS011;1474;51.460;7.150;2024-03-23T08:33:36;8.45;;;4.75;;
2928;SDS011;1474;51.460;7.150;2024-03-23T08:38:31;7.28;;;4.00;;
2928;SDS011;1474;51.460;7.150;2024-03-23T08:41:04;10.55;;;3.95;;
2928;SDS011;1474;51.460;7.150;2024-03-23T08:43:33;5.55;;;3.53;;
2928;SDS011;1474;51.460;7.150;2024-03-23T08:48:36;10.38;;;4.40;;
2928;SDS011;1474;51.460;7.150;2024-03-23T08:51:08;8.50;;;4.13;;
2928;SDS011;1474;51.460;7.150;2024-03-23T08:53:35;10.73;;;3.58;;
2928;SDS011;1474;51.460;7.150;2024-03-23T08:56:02;8.00;;;3.75;;
2928;SDS011;1474;51.460;7.150;2024-03-23T08:58:31;8.40;;;3.17;;
2928;SDS011;1474;51.460;7.150;2024-03-23T09:01:06;7.45;;;3.08;;
2928;SDS011;1474;51.460;7.150;2024-03-23T09:03:34;7.25;;;2.80;;
2928;SDS011;1474;51.460;7.150;2024-03-23T09:06:02;6.00;;;3.20;;
2928;SDS011;1474;51.460;7.150;2024-03-23T09:08:39;7.97;;;2.83;;
2928;SDS011;1474;51.460;7.150;2024-03-23T09:11:07;4.88;;;3.17;;
2928;SDS011;1474;51.460;7.150;2024-03-23T09:13:35;7.82;;;2.83;;
2928;SDS011;1474;51.460;7.150;2024-03-23T09:16:03;6.00;;;3.35;;
2928;SDS011;1474;51.460;7.150;2024-03-23T09:18:34;4.85;;;2.30;;
2928;SDS011;1474;51.460;7.150;2024-03-23T09:21:01;3.67;;;2.33;;
2928;SDS011;1474;51.460;7.150;2024-03-23T09:23:28;8.05;;;2.60;;
2928;SDS011;1474;51.460;7.150;2024-03-23T09:25:54;5.53;;;2.33;;
2928;SDS011;1474;51.460;7.150;2024-03-23T09:28:20;3.47;;;2.45;;
2928;SDS011;1474;51.460;7.150;2024-03-23T09:30:47;5.43;;;2.70;;
2928;SDS011;1474;51.460;7.150;2024-03-23T09:33:13;3.30;;;2.60;;
2928;SDS011;1474;51.460;7.150;2024-03-23T09:35:39;4.95;;;1.88;;
2928;SDS011;1474;51.460;7.150;2024-03-23T09:38:12;5.43;;;2.38;;
2928;SDS011;1474;51.460;7.150;2024-03-23T09:40:41;4.32;;;1.92;;
2928;SDS011;1474;51.460;7.150;2024-03-23T09:43:08;5.60;;;1.98;;
2928;SDS011;1474;51.460;7.150;2024-03-23T09:45:36;6.05;;;2.65;;
2928;SDS011;1474;51.460;7.150;2024-03-23T09:48:06;7.25;;;2.97;;
2928;SDS011;1474;51.460;7.150;2024-03-23T09:50:40;9.73;;;3.10;;
2928;SDS011;1474;51.460;7.150;2024-03-23T09:53:08;5.15;;;3.33;;
2928;SDS011;1474;51.460;7.150;2024-03-23T09:55:39;7.00;;;2.95;;
2928;SDS011;1474;51.460;7.150;2024-03-23T09:58:07;5.47;;;3.17;;
2928;SDS011;1474;51.460;7.150;2024-03-23T10:00:34;5.00;;;3.13;;
2928;SDS011;1474;51.460;7.150;2024-03-23T10:03:00;5.90;;;3.10;;
2928;SDS011;1474;51.460;7.150;2024-03-23T10:05:28;5.38;;;3.28;;
2928;SDS011;1474;51.460;7.150;2024-03-23T10:07:57;11.98;;;2.75;;
2928;SDS011;1474;51.460;7.150;2024-03-23T10:10:24;5.85;;;2.95;;
2928;SDS011;1474;51.460;7.150;2024-03-23T10:12:50;5.68;;;2.63;;
2928;SDS011;1474;51.460;7.150;2024-03-23T10:15:35;5.32;;;2.75;;
2928;SDS011;1474;51.460;7.150;2024-03-23T10:18:17;8.35;;;2.97;;
2928;SDS011;1474;51.460;7.150;2024-03-23T10:20:51;8.27;;;2.80;;
2928;SDS011;1474;51.460;7.150;2024-03-23T10:23:36;6.53;;;2.20;;
2928;SDS011;1474;51.460;7.150;2024-03-23T10:28:54;4.53;;;1.83;;
2928;SDS011;1474;51.460;7.150;2024-03-23T10:31:23;6.03;;;1.73;;
2928;SDS011;1474;51.460;7.150;2024-03-23T10:33:49;5.00;;;1.85;;
2928;SDS011;1474;51.460;7.150;2024-03-23T10:36:15;2.92;;;1.15;;
2928;SDS011;1474;51.460;7.150;2024-03-23T10:38:42;2.25;;;1.45;;
2928;SDS011;1474;51.460;7.150;2024-03-23T10:41:12;3.55;;;2.20;;
2928;SDS011;1474;51.460;7.150;2024-03-23T10:43:38;10.52;;;1.98;;
2928;SDS011;1474;51.460;7.150;2024-03-23T10:46:05;1.45;;;0.90;;
2928;SDS011;1474;51.460;7.150;2024-03-23T10:48:31;2.88;;;1.13;;
2928;SDS011;1474;51.460;7.150;2024-03-23T10:50:58;3.83;;;1.17;;
2928;SDS011;1474;51.460;7.150;2024-03-23T10:53:25;6.03;;;1.40;;
2928;SDS011;1474;51.460;7.150;2024-03-23T10:55:55;3.08;;;1.00;;
2928;SDS011;1474;51.460;7.150;2024-03-23T10:58:26;4.38;;;1.50;;
2928;SDS011;1474;51.460;7.150;2024-03-23T11:01:02;3.92;;;0.85;;
2928;SDS011;1474;51.460;7.150;2024-03-23T11:03:35;1.98;;;0.75;;
2928;SDS011;1474;51.460;7.150;2024-03-23T11:06:03;0.47;;;0.30;;
2928;SDS011;1474;51.460;7.150;2024-03-23T11:08:35;1.55;;;0.55;;
2928;SDS011;1474;51.460;7.150;2024-03-23T11:11:19;1.23;;;0.55;;
2928;SDS011;1474;51.460;7.150;2024-03-23T11:13:48;2.38;;;0.40;;
2928;SDS011;1474;51.460;7.150;2024-03-23T11:16:17;0.47;;;0.47;;
2928;SDS011;1474;51.460;7.150;2024-03-23T11:18:49;1.50;;;0.60;;
2928;SDS011;1474;51.460;7.150;2024-03-23T11:24:18;1.15;;;0.70;;
2928;SDS011;1474;51.460;7.150;2024-03-23T11:26:46;2.22;;;0.65;;
2928;SDS011;1474;51.460;7.150;2024-03-23T11:29:15;2.97;;;0.68;;
2928;SDS011;1474;51.460;7.150;2024-03-23T11:31:49;2.85;;;0.85;;
2928;SDS011;1474;51.460;7.150;2024-03-23T11:34:17;2.50;;;1.48;;
2928;SDS011;1474;51.460;7.150;2024-03-23T11:36:45;2.50;;;1.15;;
2928;SDS011;1474;51.460;7.150;2024-03-23T11:41:52;3.10;;;1.20;;
2928;SDS011;1474;51.460;7.150;2024-03-23T11:44:23;3.63;;;1.33;;
2928;SDS011;1474;51.460;7.150;2024-03-23T11:46:52;4.50;;;1.10;;
2928;SDS011;1474;51.460;7.150;2024-03-23T11:49:21;1.40;;;1.05;;
2928;SDS011;1474;51.460;7.150;2024-03-23T11:51:52;5.25;;;1.80;;
2928;SDS011;1474;51.460;7.150;2024-03-23T11:54:20;3.38;;;1.63;;
2928;SDS011;1474;51.460;7.150;2024-03-23T11:56:57;2.03;;;1.63;;
2928;SDS011;1474;51.460;7.150;2024-03-23T11:59:37;6.75;;;2.00;;
2928;SDS011;1474;51.460;7.150;2024-03-23T12:02:07;4.50;;;1.73;;
2928;SDS011;1474;51.460;7.150;2024-03-23T12:04:35;3.92;;;1.88;;
2928;SDS011;1474;51.460;7.150;2024-03-23T12:07:36;3.90;;;1.95;;
2928;SDS011;1474;51.460;7.150;2024-03-23T12:10:04;6.25;;;1.60;;
2928;SDS011;1474;51.460;7.150;2024-03-23T12:12:34;3.30;;;1.20;;
2928;SDS011;1474;51.460;7.150;2024-03-23T12:15:04;3.08;;;1.00;;
2928;SDS011;1474;51.460;7.150;2024-03-23T12:17:33;3.10;;;1.30;;
2928;SDS011;1474;51.460;7.150;2024-03-23T12:20:00;2.60;;;0.75;;
2928;SDS011;1474;51.460;7.150;2024-03-23T12:22:26;2.47;;;0.98;;
2928;SDS011;1474;51.460;7.150;2024-03-23T12:24:54;3.15;;;1.58;;
2928;SDS011;1474;51.460;7.150;2024-03-23T12:27:20;2.78;;;1.45;;
2928;SDS011;1474;51.460;7.150;2024-03-23T12:29:47;3.03;;;1.15;;
2928;SDS011;1474;51.460;7.150;2024-03-23T12:32:13;1.63;;;1.00;;
2928;SDS011;1474;51.460;7.150;2024-03-23T12:34:40;2.22;;;1.13;;
2928;SDS011;1474;51.460;7.150;2024-03-23T12:37:06;2.47;;;0.88;;
2928;SDS011;1474;51.460;7.150;2024-03-23T12:39:32;2.50;;;1.17;;
2928;SDS011;1474;51.460;7.150;2024-03-23T12:42:00;1.70;;;0.93;;
2928;SDS011;1474;51.460;7.150;2024-03-23T12:44:27;3.00;;;1.30;;
2928;SDS011;1474;51.460;7.150;2024-03-23T12:46:54;0.80;;;0.80;;
2928;SDS011;1474;51.460;7.150;2024-03-23T12:49:19;4.15;;;1.30;;
2928;SDS011;1474;51.460;7.150;2024-03-23T12:51:47;2.63;;;0.80;;
2928;SDS011;1474;51.460;7.150;2024-03-23T12:54:20;2.88;;;1.00;;
2928;SDS011;1474;51.460;7.150;2024-03-23T12:56:47;2.35;;;1.25;;
2928;SDS011;1474;51.460;7.150;2024-03-23T12:59:13;3.42;;;1.30;;
2928;SDS011;1474;51.460;7.150;2024-03-23T13:01:39;3.70;;;1.40;;
2928;SDS011;1474;51.460;7.150;2024-03-23T13:04:05;4.57;;;1.33;;
2928;SDS011;1474;51.460;7.150;2024-03-23T13:06:32;3.15;;;1.10;;
2928;SDS011;1474;51.460;7.150;2024-03-23T13:09:00;3.53;;;0.93;;
2928;SDS011;1474;51.460;7.150;2024-03-23T13:11:27;2.50;;;1.77;;
2928;SDS011;1474;51.460;7.150;2024-03-23T13:13:53;3.05;;;1.13;;
2928;SDS011;1474;51.460;7.150;2024-03-23T13:16:19;2.67;;;0.85;;
2928;SDS011;1474;51.460;7.150;2024-03-23T13:18:45;0.65;;;0.60;;
2928;SDS011;1474;51.460;7.150;2024-03-23T13:21:11;3.83;;;1.10;;
2928;SDS011;1474;51.460;7.150;2024-03-23T13:23:37;3.70;;;1.10;;
2928;SDS011;1474;51.460;7.150;2024-03-23T13:26:06;2.70;;;0.90;;
2928;SDS011;1474;51.460;7.150;2024-03-23T13:28:32;2.85;;;0.98;;
2928;SDS011;1474;51.460;7.150;2024-03-23T13:30:58;2.97;;;1.35;;
2928;SDS011;1474;51.460;7.150;2024-03-23T13:33:28;1.50;;;0.70;;
2928;SDS011;1474;51.460;7.150;2024-03-23T13:35:57;6.28;;;1.35;;
2928;SDS011;1474;51.460;7.150;2024-03-23T13:38:23;1.38;;;0.68;;
2928;SDS011;1474;51.460;7.150;2024-03-23T13:40:52;0.57;;;0.30;;
2928;SDS011;1474;51.460;7.150;2024-03-23T13:43:23;2.08;;;0.57;;
2928;SDS011;1474;51.460;7.150;2024-03-23T13:45:56;2.13;;;0.90;;
2928;SDS011;1474;51.460;7.150;2024-03-23T13:48:25;2.78;;;0.70;;
2928;SDS011;1474;51.460;7.150;2024-03-23T13:51:00;2.45;;;0.88;;
2928;SDS011;1474;51.460;7.150;2024-03-23T13:53:30;1.83;;;1.00;;
2928;SDS011;1474;51.460;7.150;2024-03-23T13:55:59;2.22;;;1.20;;
2928;SDS011;1474;51.460;7.150;2024-03-23T13:58:25;3.63;;;1.35;;
2928;SDS011;1474;51.460;7.150;2024-03-23T14:00:52;2.70;;;1.35;;
2928;SDS011;1474;51.460;7.150;2024-03-23T14:03:18;4.22;;;1.45;;
2928;SDS011;1474;51.460;7.150;2024-03-23T14:05:44;1.90;;;1.10;;
2928;SDS011;1474;51.460;7.150;2024-03-23T14:08:12;4.13;;;0.90;;
2928;SDS011;1474;51.460;7.150;2024-03-23T14:10:41;6.32;;;1.25;;
2928;SDS011;1474;51.460;7.150;2024-03-23T14:13:08;3.45;;;0.80;;
2928;SDS011;1474;51.460;7.150;2024-03-23T14:15:34;1.40;;;0.80;;
2928;SDS011;1474;51.460;7.150;2024-03-23T14:18:01;2.25;;;0.60;;
2928;SDS011;1474;51.460;7.150;2024-03-23T14:20:28;2.35;;;0.60;;
2928;SDS011;1474;51.460;7.150;2024-03-23T14:22:54;2.40;;;0.90;;
2928;SDS011;1474;51.460;7.150;2024-03-23T14:25:20;1.60;;;0.70;;
2928;SDS011;1474;51.460;7.150;2024-03-23T14:27:48;1.85;;;0.43;;
2928;SDS011;1474;51.460;7.150;2024-03-23T14:30:14;2.83;;;0.60;;
2928;SDS011;1474;51.460;7.150;2024-03-23T14:32:40;1.90;;;0.52;;
2928;SDS011;1474;51.460;7.150;2024-03-23T14:35:06;1.45;;;0.45;;
2928;SDS011;1474;51.460;7.150;2024-03-23T14:37:35;1.15;;;0.63;;
2928;SDS011;1474;51.460;7.150;2024-03-23T14:40:03;0.60;;;0.50;;
2928;SDS011;1474;51.460;7.150;2024-03-23T14:42:30;2.38;;;0.70;;
2928;SDS011;1474;51.460;7.150;2024-03-23T14:44:59;2.78;;;0.60;;
2928;SDS011;1474;51.460;7.150;2024-03-23T14:47:25;0.52;;;0.40;;
2928;SDS011;1474;51.460;7.150;2024-03-23T14:49:51;1.58;;;0.47;;
2928;SDS011;1474;51.460;7.150;2024-03-23T14:52:17;0.95;;;0.57;;
2928;SDS011;1474;51.460;7.150;2024-03-23T14:54:46;5.18;;;0.57;;
2928;SDS011;1474;51.460;7.150;2024-03-23T14:57:12;2.13;;;0.55;;
2928;SDS011;1474;51.460;7.150;2024-03-23T14:59:38;2.47;;;0.90;;
2928;SDS011;1474;51.460;7.150;2024-03-23T15:02:05;2.30;;;0.65;;
2928;SDS011;1474;51.460;7.150;2024-03-23T15:04:34;2.10;;;0.80;;
2928;SDS011;1474;51.460;7.150;2024-03-23T15:07:01;2.65;;;1.23;;
2928;SDS011;1474;51.460;7.150;2024-03-23T15:09:27;2.30;;;0.60;;
2928;SDS011;1474;51.460;7.150;2024-03-23T15:11:53;1.55;;;0.50;;
2928;SDS011;1474;51.460;7.150;2024-03-23T15:14:23;1.38;;;0.70;;
2928;SDS011;1474;51.460;7.150;2024-03-23T15:16:49;2.45;;;1.08;;
2928;SDS011;1474;51.460;7.150;2024-03-23T15:19:16;3.85;;;0.80;;
2928;SDS011;1474;51.460;7.150;2024-03-23T15:21:42;3.42;;;0.70;;
2928;SDS011;1474;51.460;7.150;2024-03-23T15:24:09;3.03;;;0.88;;
2928;SDS011;1474;51.460;7.150;2024-03-23T15:26:36;1.88;;;0.95;;
2928;SDS011;1474;51.460;7.150;2024-03-23T15:29:02;4.18;;;1.00;;
2928;SDS011;1474;51.460;7.150;2024-03-23T15:31:35;5.38;;;1.27;;
2928;SDS011;1474;51.460;7.150;2024-03-23T15:34:01;3.20;;;1.10;;
2928;SDS011;1474;51.460;7.150;2024-03-23T15:36:28;1.08;;;0.70;;
2928;SDS011;1474;51.460;7.150;2024-03-23T15:38:54;0.90;;;0.77;;
2928;SDS011;1474;51.460;7.150;2024-03-23T15:41:20;1.52;;;0.93;;
2928;SDS011;1474;51.460;7.150;2024-03-23T15:43:48;1.83;;;1.10;;
2928;SDS011;1474;51.460;7.150;2024-03-23T15:46:14;5.88;;;1.13;;
2928;SDS011;1474;51.460;7.150;2024-03-23T15:48:40;2.70;;;1.17;;
2928;SDS011;1474;51.460;7.150;2024-03-23T15:53:37;2.80;;;1.00;;
2928;SDS011;1474;51.460;7.150;2024-03-23T15:56:03;1.77;;;1.10;;
2928;SDS011;1474;51.460;7.150;2024-03-23T15:58:30;3.28;;;0.93;;
2928;SDS011;1474;51.460;7.150;2024-03-23T16:01:03;3.70;;;1.20;;
2928;SDS011;1474;51.460;7.150;2024-03-23T16:03:31;5.45;;;1.15;;
2928;SDS011;1474;51.460;7.150;2024-03-23T16:05:59;2.47;;;1.00;;
2928;SDS011;1474;51.460;7.150;2024-03-23T16:08:27;2.10;;;1.30;;
2928;SDS011;1474;51.460;7.150;2024-03-23T16:10:53;1.85;;;0.98;;
2928;SDS011;1474;51.460;7.150;2024-03-23T16:13:19;4.55;;;1.13;;
2928;SDS011;1474;51.460;7.150;2024-03-23T16:15:55;2.00;;;0.88;;
2928;SDS011;1474;51.460;7.150;2024-03-23T16:18:26;3.50;;;0.90;;
2928;SDS011;1474;51.460;7.150;2024-03-23T16:20:58;2.63;;;1.05;;
2928;SDS011;1474;51.460;7.150;2024-03-23T16:23:29;3.10;;;1.35;;
2928;SDS011;1474;51.460;7.150;2024-03-23T16:26:00;1.17;;;0.98;;
2928;SDS011;1474;51.460;7.150;2024-03-23T16:28:27;5.05;;;1.17;;
2928;SDS011;1474;51.460;7.150;2024-03-23T16:33:34;2.13;;;1.08;;
2928;SDS011;1474;51.460;7.150;2024-03-23T16:36:05;3.03;;;0.82;;
2928;SDS011;1474;51.460;7.150;2024-03-23T16:38:37;1.35;;;0.63;;
2928;SDS011;1474;51.460;7.150;2024-03-23T16:41:05;2.08;;;0.90;;
2928;SDS011;1474;51.460;7.150;2024-03-23T16:43:38;2.50;;;0.85;;
2928;SDS011;1474;51.460;7.150;2024-03-23T16:46:05;1.30;;;1.08;;
2928;SDS011;1474;51.460;7.150;2024-03-23T16:48:37;1.23;;;0.85;;
2928;SDS011;1474;51.460;7.150;2024-03-23T16:51:04;1.38;;;0.55;;
2928;SDS011;1474;51.460;7.150;2024-03-23T16:53:32;1.05;;;0.70;;
2928;SDS011;1474;51.460;7.150;2024-03-23T16:55:59;1.77;;;0.70;;
2928;SDS011;1474;51.460;7.150;2024-03-23T16:58:31;1.55;;;0.65;;
2928;SDS011;1474;51.460;7.150;2024-03-23T17:03:37;2.05;;;0.65;;
2928;SDS011;1474;51.460;7.150;2024-03-23T17:06:06;0.73;;;0.43;;